Time;durP1;ratioP1;P1;durP2;ratioP2;P2;SDS_P1;SDS_P2;PMS_P1;PMS_P2;Temp;Humidity;BMP_temperature;BMP_pressure;BME280_temperature;BME280_humidity;BME280_pressure;Samples;Min_cycle;Max_cycle;Signal;HPM_P1;HPM_P2
2021/08/29 00:01:59;;;;;;;8.33;4.10;;;15.90;99.90;;;;;;5126919;27;20535;-36
2021/08/29 00:04:25;;;;;;;4.17;3.30;;;16.00;99.90;;;;;;5127469;27;20279;-37
2021/08/29 00:06:50;;;;;;;7.43;3.93;;;16.10;99.90;;;;;;5123306;27;20425;-36
2021/08/29 00:09:16;;;;;;;3.83;3.40;;;16.00;99.90;;;;;;5120551;27;20183;-37
2021/08/29 00:11:42;;;;;;;3.60;3.30;;;16.00;99.90;;;;;;5121954;27;20441;-37
2021/08/29 00:17:30;;;;;;;4.40;3.70;;;16.10;99.90;;;;;;5109468;27;20222;-37
2021/08/29 00:19:56;;;;;;;4.80;4.03;;;16.00;99.90;;;;;;5110297;27;20481;-36
2021/08/29 00:22:21;;;;;;;4.33;3.93;;;16.00;99.90;;;;;;5106654;28;20441;-37
2021/08/29 00:24:47;;;;;;;4.83;3.70;;;16.00;99.90;;;;;;5115504;27;20682;-37
2021/08/29 00:27:13;;;;;;;5.50;3.57;;;16.00;99.90;;;;;;5126697;27;20178;-36
2021/08/29 00:29:39;;;;;;;5.00;4.10;;;16.00;99.90;;;;;;5127344;27;20274;-37
2021/08/29 00:32:05;;;;;;;4.30;3.87;;;16.00;99.90;;;;;;5127124;27;20187;-37
2021/08/29 00:34:31;;;;;;;5.43;4.03;;;16.00;99.90;;;;;;5127329;27;20421;-37
2021/08/29 00:36:57;;;;;;;4.60;3.80;;;16.10;99.90;;;;;;5126689;27;20446;-36
2021/08/29 00:39:23;;;;;;;5.00;4.23;;;16.00;99.90;;;;;;5120492;27;20794;-37
2021/08/29 00:41:48;;;;;;;5.40;4.30;;;16.10;99.90;;;;;;5127140;27;20183;-37
2021/08/29 00:44:18;;;;;;;6.43;5.17;;;16.00;99.90;;;;;;5127104;27;20190;-37
2021/08/29 00:46:47;;;;;;;6.50;4.70;;;16.00;99.90;;;;;;5126053;27;20672;-37
2021/08/29 00:49:14;;;;;;;9.63;5.50;;;16.10;99.90;;;;;;5126971;27;20477;-37
2021/08/29 00:51:40;;;;;;;9.33;6.33;;;16.00;99.90;;;;;;5127338;27;20783;-37
2021/08/29 00:54:05;;;;;;;6.17;4.80;;;16.00;99.90;;;;;;5120659;27;20465;-37
2021/08/29 00:56:31;;;;;;;5.40;4.90;;;16.00;99.90;;;;;;5126468;27;20187;-36
2021/08/29 00:58:57;;;;;;;5.70;4.87;;;16.10;99.90;;;;;;5126712;27;20207;-37
2021/08/29 01:01:31;;;;;;;5.07;4.57;;;16.10;99.90;;;;;;5126912;27;20211;-36
2021/08/29 01:04:00;;;;;;;7.27;5.83;;;16.10;99.90;;;;;;5126821;28;20183;-37
2021/08/29 01:06:45;;;;;;;5.67;4.80;;;16.00;99.90;;;;;;5127429;28;20469;-37
2021/08/29 01:09:13;;;;;;;6.90;5.10;;;16.00;99.90;;;;;;5118626;28;20787;-37
2021/08/29 01:11:45;;;;;;;5.20;4.70;;;16.00;99.90;;;;;;5126915;28;20409;-37
2021/08/29 01:14:14;;;;;;;6.10;4.83;;;16.00;99.90;;;;;;5117767;28;20434;-37
2021/08/29 01:16:44;;;;;;;6.63;4.70;;;16.00;99.90;;;;;;5109530;28;20984;-37
2021/08/29 01:19:16;;;;;;;5.27;4.70;;;16.00;99.90;;;;;;5127841;28;20798;-37
2021/08/29 01:21:44;;;;;;;6.87;5.13;;;16.00;99.90;;;;;;5128224;28;20527;-37
2021/08/29 01:24:13;;;;;;;6.00;4.67;;;16.00;99.90;;;;;;5117044;28;20428;-37
2021/08/29 01:26:48;;;;;;;5.63;4.90;;;16.00;99.90;;;;;;5127353;28;20481;-38
2021/08/29 01:29:17;;;;;;;7.73;4.70;;;16.00;99.90;;;;;;5127972;28;20441;-37
2021/08/29 01:31:43;;;;;;;5.70;4.80;;;16.00;99.90;;;;;;5109511;28;20424;-37
2021/08/29 01:34:12;;;;;;;6.33;4.80;;;16.00;99.90;;;;;;5127981;28;20427;-37
2021/08/29 01:36:40;;;;;;;7.03;4.70;;;16.00;99.90;;;;;;5127285;28;20448;-36
2021/08/29 01:39:07;;;;;;;6.43;4.83;;;15.90;99.90;;;;;;5118983;28;20695;-37
2021/08/29 01:41:36;;;;;;;10.97;5.20;;;15.90;99.90;;;;;;5127876;28;20444;-36
2021/08/29 01:44:04;;;;;;;6.37;5.00;;;16.00;99.90;;;;;;5127845;28;20425;-37
2021/08/29 01:46:30;;;;;;;6.03;4.30;;;16.00;99.90;;;;;;5127398;28;20709;-36
2021/08/29 01:48:56;;;;;;;6.63;5.07;;;15.90;99.90;;;;;;5127119;28;20851;-37
2021/08/29 01:51:22;;;;;;;5.90;5.10;;;15.90;99.90;;;;;;5125564;28;20428;-37
2021/08/29 01:53:48;;;;;;;6.47;5.10;;;16.00;99.90;;;;;;5121174;28;20426;-37
2021/08/29 01:56:14;;;;;;;7.50;5.40;;;16.00;99.90;;;;;;5123631;28;20548;-41
2021/08/29 01:58:39;;;;;;;8.40;5.50;;;16.00;99.90;;;;;;5126043;28;20207;-37
2021/08/29 02:01:09;;;;;;;11.23;5.13;;;16.00;99.90;;;;;;5125869;27;20180;-37
2021/08/29 02:03:35;;;;;;;6.37;4.33;;;16.00;99.90;;;;;;5130058;27;20210;-36
2021/08/29 02:06:12;;;;;;;5.20;4.47;;;16.00;99.90;;;;;;5128645;27;20412;-36
2021/08/29 02:09:00;;;;;;;5.60;4.97;;;16.00;99.90;;;;;;5125661;27;20841;-37
2021/08/29 02:11:29;;;;;;;5.17;4.60;;;16.00;99.90;;;;;;5127411;27;20866;-36
2021/08/29 02:14:01;;;;;;;8.27;5.37;;;15.90;99.90;;;;;;5123384;27;20424;-37
2021/08/29 02:16:27;;;;;;;5.13;4.63;;;15.90;99.90;;;;;;5127427;27;20965;-37
2021/08/29 02:18:55;;;;;;;8.77;5.10;;;16.00;99.90;;;;;;5129378;27;20563;-37
2021/08/29 02:21:26;;;;;;;7.13;4.93;;;16.00;99.90;;;;;;5129195;27;20545;-37
2021/08/29 02:23:52;;;;;;;5.23;4.73;;;16.00;99.90;;;;;;5123226;27;21014;-37
2021/08/29 02:26:21;;;;;;;8.30;5.17;;;16.00;99.90;;;;;;5125163;27;20409;-37
2021/08/29 02:28:47;;;;;;;9.90;5.40;;;15.90;99.90;;;;;;5129045;27;20425;-37
2021/08/29 02:31:13;;;;;;;7.33;6.17;;;15.90;99.90;;;;;;5129354;27;20963;-36
2021/08/29 02:33:38;;;;;;;6.97;5.70;;;15.90;99.90;;;;;;5129064;27;20284;-36
2021/08/29 02:36:05;;;;;;;6.40;5.60;;;15.90;99.90;;;;;;5128605;27;20922;-37
2021/08/29 02:38:30;;;;;;;7.70;5.37;;;15.90;99.90;;;;;;5125926;27;20206;-36
2021/08/29 02:40:59;;;;;;;8.03;5.37;;;15.90;99.90;;;;;;5116601;27;20408;-36
2021/08/29 02:43:26;;;;;;;6.83;5.70;;;15.90;99.90;;;;;;5126399;27;20183;-36
2021/08/29 02:45:53;;;;;;;6.70;5.60;;;15.90;99.90;;;;;;5128425;27;20798;-36
2021/08/29 02:48:21;;;;;;;6.47;4.90;;;15.90;99.90;;;;;;5128794;27;20429;-36
2021/08/29 02:50:47;;;;;;;6.77;4.80;;;16.00;99.90;;;;;;5128778;27;20443;-36
2021/08/29 02:53:18;;;;;;;11.03;6.33;;;16.00;99.90;;;;;;5128907;27;20428;-36
2021/08/29 02:55:48;;;;;;;7.67;5.93;;;16.00;99.90;;;;;;5113894;27;20767;-36
2021/08/29 02:58:15;;;;;;;6.40;5.37;;;16.00;99.90;;;;;;5128321;27;20463;-36
2021/08/29 03:00:41;;;;;;;6.33;5.33;;;16.00;99.90;;;;;;5128639;27;20504;-36
2021/08/29 03:03:07;;;;;;;6.93;5.47;;;15.90;99.90;;;;;;5128950;27;20503;-36
2021/08/29 03:05:33;;;;;;;7.30;5.67;;;15.90;99.90;;;;;;5128195;27;20222;-36
2021/08/29 03:07:59;;;;;;;9.93;5.90;;;16.00;99.90;;;;;;5128536;27;20254;-36
2021/08/29 03:10:25;;;;;;;6.07;5.47;;;16.00;99.90;;;;;;5117557;27;20198;-36
2021/08/29 03:12:50;;;;;;;8.00;6.13;;;16.00;99.90;;;;;;5127212;27;20530;-36
2021/08/29 03:15:16;;;;;;;7.90;5.87;;;15.90;99.90;;;;;;5127855;27;20420;-36
2021/08/29 03:17:43;;;;;;;8.30;5.80;;;16.00;99.90;;;;;;5126684;27;20523;-37
2021/08/29 03:20:09;;;;;;;7.60;5.83;;;15.90;99.90;;;;;;5128425;27;20848;-37
2021/08/29 03:22:37;;;;;;;12.83;6.37;;;15.90;99.90;;;;;;5110039;27;20421;-36
2021/08/29 03:25:05;;;;;;;5.87;5.27;;;15.90;99.90;;;;;;5118556;27;20486;-36
2021/08/29 03:27:30;;;;;;;7.77;5.10;;;16.00;99.90;;;;;;5125824;27;20508;-36
2021/08/29 03:29:56;;;;;;;7.63;6.40;;;16.00;99.90;;;;;;5126440;27;20420;-36
2021/08/29 03:32:24;;;;;;;12.80;6.87;;;16.00;99.90;;;;;;5128264;27;20425;-36
2021/08/29 03:34:53;;;;;;;11.37;6.47;;;16.00;99.90;;;;;;5127746;27;20186;-36
2021/08/29 03:37:21;;;;;;;7.50;5.60;;;16.00;99.90;;;;;;5109498;27;20424;-36
2021/08/29 03:39:47;;;;;;;10.87;6.50;;;16.00;99.90;;;;;;5123144;27;20461;-36
2021/08/29 03:42:14;;;;;;;9.17;7.07;;;15.90;99.90;;;;;;5123628;27;20419;-36
2021/08/29 03:44:39;;;;;;;7.33;6.00;;;15.90;99.90;;;;;;5121939;27;20648;-36
2021/08/29 03:47:06;;;;;;;7.90;6.07;;;15.90;99.90;;;;;;5127181;27;20420;-36
2021/08/29 03:49:31;;;;;;;8.33;5.87;;;15.90;99.90;;;;;;5127486;27;20179;-36
2021/08/29 03:51:58;;;;;;;8.93;6.40;;;15.90;99.90;;;;;;5127477;27;20449;-36
2021/08/29 03:54:24;;;;;;;6.97;5.67;;;15.90;99.90;;;;;;5104823;27;20252;-37
2021/08/29 03:56:49;;;;;;;10.10;5.70;;;15.90;99.90;;;;;;5119862;27;20417;-36
2021/08/29 03:59:15;;;;;;;8.50;5.67;;;15.90;99.90;;;;;;5127513;27;20206;-36
2021/08/29 04:01:41;;;;;;;9.50;5.93;;;15.90;99.90;;;;;;5127499;27;20251;-36
2021/08/29 04:04:07;;;;;;;8.13;5.83;;;15.90;99.90;;;;;;5127258;27;20827;-36
2021/08/29 04:06:34;;;;;;;7.30;5.77;;;15.90;99.90;;;;;;5108323;27;20183;-36
2021/08/29 04:09:04;;;;;;;10.27;6.40;;;15.90;99.90;;;;;;5126133;27;20266;-36
2021/08/29 04:11:30;;;;;;;9.30;5.70;;;15.90;99.90;;;;;;5119749;27;20542;-36
2021/08/29 04:13:57;;;;;;;8.20;5.57;;;15.90;99.90;;;;;;5127167;27;20424;-36
2021/08/29 04:16:24;;;;;;;8.17;5.60;;;15.90;99.90;;;;;;5125312;27;20931;-36
2021/08/29 04:18:50;;;;;;;6.17;5.57;;;15.90;99.90;;;;;;5119830;27;20453;-36
2021/08/29 04:21:18;;;;;;;10.53;6.10;;;15.90;99.90;;;;;;5106477;28;20454;-36
2021/08/29 04:23:44;;;;;;;8.10;5.80;;;15.90;99.90;;;;;;5106380;28;20448;-36
2021/08/29 04:26:11;;;;;;;10.10;6.23;;;15.90;99.90;;;;;;5113555;27;20554;-36
2021/08/29 04:28:37;;;;;;;7.33;5.13;;;15.90;99.90;;;;;;5121771;27;20417;-36
2021/08/29 04:31:12;;;;;;;10.37;5.10;;;15.90;99.90;;;;;;5126702;27;20778;-36
2021/08/29 04:33:39;;;;;;;8.77;5.73;;;15.90;99.90;;;;;;5126848;27;20404;-36
2021/08/29 04:36:08;;;;;;;10.10;5.90;;;15.80;99.90;;;;;;5107699;27;20417;-36
2021/08/29 04:38:34;;;;;;;11.83;6.00;;;15.80;99.90;;;;;;5126662;27;20544;-36
2021/08/29 04:41:00;;;;;;;9.70;5.00;;;15.90;99.90;;;;;;5115653;27;20433;-36
2021/08/29 04:43:26;;;;;;;9.07;5.63;;;15.90;99.90;;;;;;5126658;27;20409;-36
2021/08/29 04:45:52;;;;;;;11.57;5.70;;;15.90;99.90;;;;;;5122243;27;20206;-36
2021/08/29 04:48:17;;;;;;;9.90;5.67;;;15.90;99.90;;;;;;5107956;28;20934;-36
2021/08/29 04:50:43;;;;;;;12.80;6.70;;;16.00;99.90;;;;;;5108030;27;20183;-36
2021/08/29 04:53:09;;;;;;;10.20;5.90;;;15.90;99.90;;;;;;5126943;27;20193;-36
2021/08/29 04:55:34;;;;;;;7.77;5.90;;;15.90;99.90;;;;;;5115229;27;20194;-37
2021/08/29 04:58:00;;;;;;;10.63;6.07;;;15.90;99.90;;;;;;5102455;27;20183;-36
2021/08/29 05:00:26;;;;;;;9.03;6.13;;;15.90;99.90;;;;;;5125709;27;20277;-36
2021/08/29 05:02:52;;;;;;;8.63;6.00;;;15.90;99.90;;;;;;5126582;28;20183;-36
2021/08/29 05:05:17;;;;;;;11.80;6.20;;;15.90;99.90;;;;;;5126384;28;20803;-36
2021/08/29 05:07:43;;;;;;;7.80;5.53;;;15.90;99.90;;;;;;5125992;28;20191;-36
2021/08/29 05:10:09;;;;;;;6.20;4.63;;;15.90;99.90;;;;;;5118676;28;20191;-36
2021/08/29 05:12:35;;;;;;;6.20;5.57;;;15.90;99.90;;;;;;5118320;28;20187;-36
2021/08/29 05:15:00;;;;;;;7.37;5.27;;;15.90;99.90;;;;;;5126121;28;20442;-37
2021/08/29 05:17:26;;;;;;;7.57;5.63;;;15.90;99.90;;;;;;5124661;28;20187;-36
2021/08/29 05:19:52;;;;;;;8.53;5.50;;;15.90;99.90;;;;;;5125527;28;20226;-36
2021/08/29 05:22:17;;;;;;;10.63;5.37;;;15.90;99.90;;;;;;5126420;28;20952;-36
2021/08/29 05:24:43;;;;;;;9.23;5.40;;;15.90;99.90;;;;;;5123888;28;20553;-36
2021/08/29 05:27:09;;;;;;;11.60;5.40;;;15.90;99.90;;;;;;5116325;28;20191;-36
2021/08/29 05:29:34;;;;;;;9.67;5.73;;;15.90;99.90;;;;;;5126179;28;20243;-37
2021/08/29 05:32:00;;;;;;;7.00;5.63;;;15.90;99.90;;;;;;5125971;28;20286;-36
2021/08/29 05:34:26;;;;;;;9.20;5.83;;;15.90;99.90;;;;;;5125989;28;20208;-36
2021/08/29 05:36:51;;;;;;;13.93;6.20;;;15.90;99.90;;;;;;5126840;27;20273;-36
2021/08/29 05:39:17;;;;;;;7.57;6.07;;;15.90;99.90;;;;;;5130158;27;20394;-36
2021/08/29 05:41:43;;;;;;;7.43;5.13;;;15.80;99.90;;;;;;5123408;27;20175;-36
2021/08/29 05:44:08;;;;;;;9.40;5.83;;;15.90;99.90;;;;;;5125476;27;20190;-36
2021/08/29 05:46:34;;;;;;;9.17;6.00;;;15.90;99.90;;;;;;5129767;27;20252;-36
2021/08/29 05:49:00;;;;;;;11.03;5.30;;;15.90;99.90;;;;;;5130225;27;20268;-36
2021/08/29 05:51:25;;;;;;;11.10;6.90;;;15.80;99.90;;;;;;5111666;27;20451;-36
2021/08/29 05:53:51;;;;;;;10.13;5.70;;;15.80;99.90;;;;;;5130217;27;20193;-36
2021/08/29 05:56:17;;;;;;;8.77;6.13;;;15.80;99.90;;;;;;5118605;27;20183;-36
2021/08/29 05:58:42;;;;;;;10.17;6.40;;;15.80;99.90;;;;;;5123907;27;20241;-36
2021/08/29 06:01:12;;;;;;;11.50;5.73;;;15.90;99.90;;;;;;5127946;27;20219;-36
2021/08/29 06:03:38;;;;;;;13.00;6.60;;;15.90;99.90;;;;;;5129755;27;20183;-36
2021/08/29 06:06:04;;;;;;;12.70;6.90;;;15.90;99.90;;;;;;5129224;27;20423;-36
2021/08/29 06:08:29;;;;;;;17.03;6.40;;;15.90;99.90;;;;;;5129514;27;20680;-36
2021/08/29 06:10:56;;;;;;;7.83;5.30;;;16.00;99.90;;;;;;5119432;27;20504;-36
2021/08/29 06:13:22;;;;;;;8.30;5.33;;;16.00;99.90;;;;;;5126771;27;20187;-36
2021/08/29 06:15:47;;;;;;;10.40;6.30;;;15.90;99.90;;;;;;5129206;27;20805;-36
2021/08/29 06:18:13;;;;;;;9.30;5.80;;;16.00;99.90;;;;;;5128218;27;20683;-36
2021/08/29 06:20:39;;;;;;;12.80;5.60;;;16.00;99.90;;;;;;5129680;27;20183;-36
2021/08/29 06:23:04;;;;;;;6.97;5.70;;;16.00;99.90;;;;;;5129668;27;20365;-36
2021/08/29 06:25:30;;;;;;;9.70;6.30;;;16.00;99.90;;;;;;5125269;27;20195;-36
2021/08/29 06:27:56;;;;;;;9.83;6.10;;;16.00;99.90;;;;;;5123705;27;20232;-36
2021/08/29 06:30:21;;;;;;;9.27;6.00;;;16.00;99.90;;;;;;5129340;27;20315;-36
2021/08/29 06:32:47;;;;;;;7.90;6.50;;;16.00;99.90;;;;;;5129548;27;20198;-36
2021/08/29 06:35:13;;;;;;;9.40;5.90;;;16.10;99.90;;;;;;5129624;27;20573;-36
2021/08/29 06:37:38;;;;;;;8.93;6.20;;;16.00;99.90;;;;;;5129178;27;20555;-36
2021/08/29 06:40:05;;;;;;;8.10;5.60;;;16.10;99.90;;;;;;5116685;27;20203;-36
2021/08/29 06:42:30;;;;;;;7.93;5.60;;;16.10;99.90;;;;;;5122198;27;20191;-36
2021/08/29 06:44:56;;;;;;;11.00;6.27;;;16.10;99.90;;;;;;5128799;27;20421;-36
2021/08/29 06:47:21;;;;;;;8.97;6.27;;;16.10;99.90;;;;;;5128201;27;20288;-36
2021/08/29 06:49:47;;;;;;;8.40;5.60;;;16.10;99.90;;;;;;5128982;27;20252;-36
2021/08/29 06:52:13;;;;;;;8.63;6.73;;;16.10;99.90;;;;;;5128980;27;20186;-36
2021/08/29 06:54:38;;;;;;;8.87;6.40;;;16.10;99.90;;;;;;5128957;27;20183;-36
2021/08/29 06:57:04;;;;;;;10.07;5.80;;;16.10;99.90;;;;;;5118626;27;20273;-36
2021/08/29 06:59:30;;;;;;;8.53;5.70;;;16.10;99.90;;;;;;5121037;27;20216;-36
2021/08/29 07:01:56;;;;;;;9.43;6.17;;;16.10;99.90;;;;;;5128437;27;20425;-36
2021/08/29 07:04:22;;;;;;;7.30;5.53;;;16.20;99.90;;;;;;5128552;27;20182;-36
2021/08/29 07:06:47;;;;;;;7.10;5.33;;;16.10;99.90;;;;;;5126703;27;20443;-36
2021/08/29 07:09:13;;;;;;;6.93;5.60;;;16.20;99.90;;;;;;5125059;27;20253;-36
2021/08/29 07:11:39;;;;;;;11.87;6.67;;;16.20;99.90;;;;;;5119766;27;20590;-36
2021/08/29 07:14:04;;;;;;;8.20;4.80;;;16.20;99.90;;;;;;5125953;27;20828;-36
2021/08/29 07:16:30;;;;;;;7.20;5.60;;;16.10;99.90;;;;;;5124953;27;20753;-36
2021/08/29 07:18:57;;;;;;;7.20;5.47;;;16.20;99.90;;;;;;5128223;27;20209;-36
2021/08/29 07:21:23;;;;;;;8.40;5.03;;;16.20;99.90;;;;;;5126198;27;20195;-36
2021/08/29 07:23:49;;;;;;;9.50;5.80;;;16.20;99.90;;;;;;5125259;27;20412;-36
2021/08/29 07:26:15;;;;;;;8.67;5.17;;;16.20;99.90;;;;;;5121506;27;20508;-36
2021/08/29 07:28:44;;;;;;;6.77;5.53;;;16.20;99.90;;;;;;5126663;27;20472;-36
2021/08/29 07:31:11;;;;;;;7.43;5.03;;;16.20;99.90;;;;;;5126045;27;20435;-36
2021/08/29 07:33:38;;;;;;;7.80;5.87;;;16.10;99.90;;;;;;5128225;27;20467;-36
2021/08/29 07:36:04;;;;;;;10.50;5.40;;;16.10;99.90;;;;;;5111954;27;20970;-36
2021/08/29 07:38:30;;;;;;;7.47;5.63;;;16.10;99.90;;;;;;5125039;27;20448;-36
2021/08/29 07:40:56;;;;;;;7.80;5.27;;;16.10;99.90;;;;;;5122949;27;20434;-36
2021/08/29 07:43:22;;;;;;;7.27;5.17;;;16.10;99.90;;;;;;5119323;27;20512;-36
2021/08/29 07:45:48;;;;;;;7.10;5.60;;;16.00;99.90;;;;;;5123807;27;20350;-36
2021/08/29 07:48:13;;;;;;;7.63;5.47;;;16.00;99.90;;;;;;5108474;27;20179;-36
2021/08/29 07:50:39;;;;;;;7.67;4.90;;;16.00;99.90;;;;;;5126989;27;20214;-36
2021/08/29 07:53:04;;;;;;;9.17;5.27;;;16.00;99.90;;;;;;5126711;27;20187;-36
2021/08/29 07:55:30;;;;;;;6.60;4.80;;;16.00;99.90;;;;;;5126877;27;20198;-36
2021/08/29 07:57:56;;;;;;;5.20;4.07;;;16.00;99.90;;;;;;5114470;27;20218;-36
2021/08/29 08:00:22;;;;;;;6.73;4.83;;;16.00;99.90;;;;;;5123298;27;20187;-36
2021/08/29 08:02:47;;;;;;;5.37;4.17;;;16.00;99.90;;;;;;5125563;27;20190;-36
2021/08/29 08:05:13;;;;;;;5.87;4.37;;;16.00;99.90;;;;;;5127003;27;20366;-36
2021/08/29 08:07:39;;;;;;;6.20;4.53;;;16.00;99.90;;;;;;5118698;27;20238;-36
2021/08/29 08:10:05;;;;;;;5.13;4.30;;;16.10;99.90;;;;;;5105567;28;20192;-36
2021/08/29 08:12:31;;;;;;;6.00;5.17;;;16.00;99.90;;;;;;5108869;27;20271;-37
2021/08/29 08:14:57;;;;;;;5.60;4.20;;;16.00;99.90;;;;;;5125990;27;20409;-36
2021/08/29 08:17:23;;;;;;;5.57;4.30;;;15.90;99.90;;;;;;5122339;27;20213;-36
2021/08/29 08:19:48;;;;;;;5.00;4.10;;;16.00;99.90;;;;;;5126912;27;20867;-36
2021/08/29 08:22:14;;;;;;;4.60;4.17;;;16.00;99.90;;;;;;5126790;27;20190;-36
2021/08/29 08:24:40;;;;;;;6.60;3.70;;;16.00;99.90;;;;;;5125919;27;20190;-37
2021/08/29 08:27:06;;;;;;;4.63;3.87;;;16.00;99.90;;;;;;5115985;27;20421;-36
2021/08/29 08:29:32;;;;;;;5.57;4.10;;;16.10;99.90;;;;;;5123914;27;20206;-36
2021/08/29 08:31:58;;;;;;;4.30;3.27;;;16.10;99.90;;;;;;5124115;27;20519;-36
2021/08/29 08:34:23;;;;;;;5.50;3.97;;;16.00;99.90;;;;;;5125257;27;20649;-36
2021/08/29 08:36:49;;;;;;;3.80;3.40;;;16.00;99.90;;;;;;5124531;27;20413;-36
2021/08/29 08:39:15;;;;;;;4.20;3.47;;;16.00;99.90;;;;;;5123430;27;20199;-36
2021/08/29 08:41:40;;;;;;;4.53;3.50;;;16.00;99.90;;;;;;5101895;27;20187;-36
2021/08/29 08:44:07;;;;;;;5.30;3.90;;;15.90;99.90;;;;;;5122950;27;20190;-37
2021/08/29 08:46:32;;;;;;;4.97;4.40;;;15.90;99.90;;;;;;5125046;27;20186;-36
2021/08/29 08:49:01;;;;;;;5.53;5.03;;;15.90;99.90;;;;;;5124758;27;20430;-36
2021/08/29 08:51:29;;;;;;;5.37;4.87;;;16.00;99.90;;;;;;5121953;27;20540;-37
2021/08/29 08:53:58;;;;;;;5.47;4.97;;;16.00;99.90;;;;;;5123178;27;21055;-36
2021/08/29 08:56:23;;;;;;;5.77;5.27;;;16.00;99.90;;;;;;5096431;28;20959;-36
2021/08/29 08:58:49;;;;;;;7.10;6.50;;;16.00;99.90;;;;;;5101541;27;20489;-36
2021/08/29 09:01:15;;;;;;;7.17;6.47;;;16.00;99.90;;;;;;5126958;27;20270;-36
2021/08/29 09:03:42;;;;;;;6.77;6.17;;;16.00;99.90;;;;;;5127021;27;20424;-36
2021/08/29 09:06:08;;;;;;;7.17;6.40;;;16.00;99.90;;;;;;5124302;28;20439;-36
2021/08/29 09:08:35;;;;;;;6.93;6.00;;;16.00;99.90;;;;;;5127090;28;20465;-36
2021/08/29 09:11:02;;;;;;;5.80;5.30;;;15.90;99.90;;;;;;5129509;27;20421;-36
2021/08/29 09:13:48;;;;;;;5.23;4.73;;;16.00;99.90;;;;;;5124697;27;20633;-37
2021/08/29 09:16:19;;;;;;;7.93;7.17;;;15.90;99.90;;;;;;5123894;27;20950;-36
2021/08/29 09:18:48;;;;;;;6.90;6.20;;;16.00;99.90;;;;;;5111535;27;20902;-36
2021/08/29 09:21:38;;;;;;;6.87;6.27;;;16.00;99.90;;;;;;5129175;27;20462;-36
2021/08/29 09:24:12;;;;;;;6.40;5.80;;;16.00;99.90;;;;;;5117075;27;20499;-36
2021/08/29 09:26:44;;;;;;;6.23;5.73;;;16.00;99.90;;;;;;5124875;27;20433;-36
2021/08/29 09:29:21;;;;;;;6.73;6.13;;;15.90;99.90;;;;;;5121533;27;20457;-37
2021/08/29 09:31:48;;;;;;;5.83;5.33;;;16.00;99.90;;;;;;5121719;27;20502;-37
2021/08/29 09:34:18;;;;;;;5.30;4.80;;;15.90;99.90;;;;;;5127348;27;20413;-36
2021/08/29 09:36:44;;;;;;;5.20;4.60;;;16.00;99.90;;;;;;5125948;27;20417;-36
2021/08/29 09:39:17;;;;;;;3.97;3.67;;;16.00;99.90;;;;;;5129850;27;20968;-37
2021/08/29 09:41:43;;;;;;;4.23;3.50;;;16.00;99.90;;;;;;5128907;27;20175;-37
2021/08/29 09:44:22;;;;;;;4.37;3.93;;;16.00;99.90;;;;;;5121785;27;20417;-37
2021/08/29 09:46:57;;;;;;;3.57;3.27;;;16.00;99.90;;;;;;5120255;27;20405;-36
2021/08/29 09:49:32;;;;;;;4.47;4.00;;;16.00;99.90;;;;;;5124996;27;20496;-37
2021/08/29 09:52:00;;;;;;;5.20;4.73;;;16.00;99.90;;;;;;5127932;27;20843;-36
2021/08/29 09:54:33;;;;;;;4.80;4.40;;;16.00;99.90;;;;;;5108814;27;20761;-36
2021/08/29 09:57:00;;;;;;;7.27;5.20;;;16.00;99.90;;;;;;5123249;27;20558;-36
2021/08/29 09:59:39;;;;;;;6.20;5.70;;;16.00;99.90;;;;;;5127300;27;20687;-36
2021/08/29 10:02:05;;;;;;;5.43;5.00;;;15.90;99.90;;;;;;5125393;27;20401;-36
2021/08/29 10:04:30;;;;;;;6.23;5.63;;;15.90;99.90;;;;;;5120697;27;20420;-36
2021/08/29 10:07:09;;;;;;;6.03;5.53;;;16.00;99.90;;;;;;5126229;27;20279;-36
2021/08/29 10:09:34;;;;;;;4.70;4.30;;;16.00;99.90;;;;;;5130966;27;20187;-36
2021/08/29 10:12:02;;;;;;;5.00;4.60;;;16.00;99.90;;;;;;5126175;27;20429;-36
2021/08/29 10:14:30;;;;;;;4.33;3.93;;;15.90;99.90;;;;;;5123854;27;20198;-37
2021/08/29 10:16:58;;;;;;;3.60;3.30;;;16.00;99.90;;;;;;5129162;27;20412;-36
2021/08/29 10:19:26;;;;;;;3.37;3.07;;;15.90;99.90;;;;;;5130560;27;20440;-36
2021/08/29 10:21:52;;;;;;;4.53;3.30;;;16.00;99.90;;;;;;5129802;27;20457;-36
2021/08/29 10:24:20;;;;;;;3.17;2.87;;;15.90;99.90;;;;;;5130592;27;20428;-36
2021/08/29 10:26:50;;;;;;;2.60;2.40;;;16.00;99.90;;;;;;5128936;27;20409;-36
2021/08/29 10:29:19;;;;;;;3.70;2.87;;;16.00;99.90;;;;;;5126314;27;20416;-36
2021/08/29 10:31:58;;;;;;;3.03;2.70;;;16.10;99.90;;;;;;5122359;27;20432;-36
2021/08/29 10:34:25;;;;;;;3.90;2.63;;;16.00;99.90;;;;;;5130069;27;20987;-36
2021/08/29 10:36:53;;;;;;;2.40;2.20;;;16.00;99.90;;;;;;5129901;27;20501;-36
2021/08/29 10:39:18;;;;;;;2.40;2.30;;;16.00;99.90;;;;;;5112036;27;20463;-36
2021/08/29 10:41:44;;;;;;;2.60;1.97;;;16.00;99.90;;;;;;5130502;27;20409;-36
2021/08/29 10:44:13;;;;;;;2.97;2.20;;;16.10;99.90;;;;;;5117349;27;20848;-36
2021/08/29 10:46:44;;;;;;;2.20;2.00;;;16.00;99.90;;;;;;5127146;27;20401;-36
2021/08/29 10:49:11;;;;;;;2.60;2.00;;;16.00;99.90;;;;;;5129889;27;21147;-36
2021/08/29 10:51:37;;;;;;;2.80;2.60;;;16.10;99.90;;;;;;5126196;27;20436;-36
2021/08/29 10:54:14;;;;;;;2.60;2.40;;;16.10;99.90;;;;;;5127865;27;20481;-36
2021/08/29 10:56:41;;;;;;;2.60;2.33;;;16.10;99.90;;;;;;5127126;27;20496;-36
2021/08/29 10:59:09;;;;;;;3.00;2.80;;;16.10;99.90;;;;;;5117131;27;20935;-36
2021/08/29 11:01:39;;;;;;;2.60;2.40;;;16.00;99.90;;;;;;5129400;27;20420;-36
2021/08/29 11:04:25;;;;;;;3.23;2.43;;;16.10;99.90;;;;;;5129460;27;20923;-36
2021/08/29 11:06:54;;;;;;;3.20;2.90;;;16.10;99.90;;;;;;5129083;27;20416;-36
2021/08/29 11:09:35;;;;;;;2.80;2.60;;;16.10;99.90;;;;;;5128724;27;20436;-36
2021/08/29 11:12:02;;;;;;;3.40;3.10;;;16.10;99.90;;;;;;5127238;27;20444;-37
2021/08/29 11:14:44;;;;;;;3.30;2.93;;;16.20;99.90;;;;;;5120873;27;20898;-36
2021/08/29 11:17:18;;;;;;;2.73;2.53;;;16.20;99.90;;;;;;5123832;27;20427;-36
2021/08/29 11:19:46;;;;;;;2.47;2.30;;;16.20;99.90;;;;;;5127473;27;20444;-36
2021/08/29 11:22:24;;;;;;;2.80;2.60;;;16.20;99.90;;;;;;5126877;27;20440;-36
2021/08/29 11:24:54;;;;;;;3.70;3.17;;;16.20;99.90;;;;;;5127465;27;20417;-36
2021/08/29 11:27:40;;;;;;;3.03;2.83;;;16.20;99.90;;;;;;5124357;27;20423;-37
2021/08/29 11:30:16;;;;;;;3.33;3.03;;;16.30;99.90;;;;;;5124765;27;20786;-36
2021/08/29 11:32:45;;;;;;;3.33;3.03;;;16.30;99.90;;;;;;5126949;27;20475;-36
2021/08/29 11:35:11;;;;;;;3.20;2.97;;;16.20;99.90;;;;;;5126251;27;20442;-36
2021/08/29 11:37:37;;;;;;;3.80;3.00;;;16.30;99.90;;;;;;5126359;27;20439;-36
2021/08/29 11:40:08;;;;;;;3.77;3.47;;;16.20;99.90;;;;;;5115047;27;20206;-37
2021/08/29 11:42:34;;;;;;;3.60;3.30;;;16.20;99.90;;;;;;5123262;27;20426;-36
2021/08/29 11:45:01;;;;;;;4.10;3.70;;;16.30;99.90;;;;;;5120798;27;20413;-37
2021/08/29 11:47:38;;;;;;;3.83;3.43;;;16.30;99.90;;;;;;5107759;27;20746;-36
2021/08/29 11:50:06;;;;;;;4.17;3.77;;;16.30;99.90;;;;;;5125116;27;20424;-36
2021/08/29 11:52:35;;;;;;;3.83;3.47;;;16.40;99.90;;;;;;5123644;27;20948;-37
2021/08/29 11:55:09;;;;;;;5.20;4.10;;;16.40;99.90;;;;;;5114654;27;20409;-37
2021/08/29 11:57:49;;;;;;;3.77;3.47;;;16.40;99.90;;;;;;5104413;27;20994;-37
2021/08/29 12:00:17;;;;;;;4.40;4.00;;;16.50;99.90;;;;;;5120964;27;21027;-36
2021/08/29 12:02:45;;;;;;;3.70;3.40;;;16.40;99.90;;;;;;5118274;27;20409;-37
2021/08/29 12:05:13;;;;;;;4.30;3.90;;;16.40;99.90;;;;;;5126784;27;20425;-37
2021/08/29 12:08:17;;;;;;;4.10;3.80;;;16.40;99.90;;;;;;5125907;27;20437;-36
2021/08/29 12:10:46;;;;;;;4.63;4.23;;;16.40;99.90;;;;;;5068022;27;20462;-37
2021/08/29 12:13:12;;;;;;;4.97;4.57;;;16.40;99.90;;;;;;5118878;27;20421;-37
2021/08/29 12:15:38;;;;;;;4.47;3.70;;;16.40;99.90;;;;;;5117775;27;20892;-36
2021/08/29 12:18:06;;;;;;;3.93;3.53;;;16.40;99.90;;;;;;5123184;27;20409;-36
2021/08/29 12:20:33;;;;;;;4.40;4.00;;;16.40;99.90;;;;;;5125170;27;20419;-36
2021/08/29 12:23:07;;;;;;;4.20;3.80;;;16.40;99.90;;;;;;5122450;27;20451;-37
2021/08/29 12:25:33;;;;;;;4.13;3.83;;;16.50;99.90;;;;;;5124282;27;20812;-36
2021/08/29 12:28:10;;;;;;;4.83;4.33;;;16.40;99.90;;;;;;5123111;27;20582;-36
2021/08/29 12:30:37;;;;;;;5.53;4.73;;;16.40;99.90;;;;;;5122700;27;20476;-36
2021/08/29 12:33:14;;;;;;;5.03;3.93;;;16.40;99.90;;;;;;5124473;27;20654;-36
2021/08/29 12:35:41;;;;;;;4.80;4.40;;;16.40;99.90;;;;;;5121779;27;20409;-36
2021/08/29 12:38:27;;;;;;;4.70;4.30;;;16.50;99.90;;;;;;5124239;27;20702;-36
2021/08/29 12:40:54;;;;;;;4.60;4.20;;;16.50;99.90;;;;;;5103914;27;20515;-36
2021/08/29 12:43:21;;;;;;;5.70;5.20;;;16.50;99.90;;;;;;5119979;27;20424;-37
2021/08/29 12:45:48;;;;;;;5.10;4.70;;;16.50;99.90;;;;;;5121746;27;20417;-36
2021/08/29 12:48:14;;;;;;;5.40;5.00;;;16.40;99.90;;;;;;5123767;27;20413;-36
2021/08/29 12:50:52;;;;;;;5.57;5.07;;;16.50;99.90;;;;;;5104031;27;20419;-37
2021/08/29 12:53:21;;;;;;;5.70;5.20;;;16.50;99.90;;;;;;5122755;27;20409;-36